createdAt,value
2017-12-05T00:01:46.170Z,42.58
2017-12-05T00:04:14.448Z,42.67
2017-12-05T00:06:42.751Z,42.62
2017-12-05T00:09:11.032Z,42.64
2017-12-05T00:11:39.371Z,42.64
2017-12-05T00:14:07.655Z,42.67
2017-12-05T00:16:36.163Z,42.78
2017-12-05T00:19:04.615Z,42.71
2017-12-05T00:21:32.941Z,42.72
2017-12-05T00:24:01.222Z,42.75
2017-12-05T00:26:29.550Z,42.75
2017-12-05T00:28:57.860Z,42.76
2017-12-05T00:31:26.201Z,42.74
2017-12-05T00:33:54.454Z,42.74
2017-12-05T00:36:22.748Z,42.76
2017-12-05T00:38:51.015Z,42.68
2017-12-05T00:41:19.315Z,42.75
2017-12-05T00:43:47.608Z,42.73
2017-12-05T00:46:15.994Z,42.69
2017-12-05T00:48:44.267Z,42.63
2017-12-05T00:51:12.559Z,42.60
2017-12-05T00:53:40.848Z,42.64
2017-12-05T00:56:09.134Z,42.66
2017-12-05T00:58:37.415Z,42.64
2017-12-05T01:01:05.733Z,42.58
2017-12-05T01:03:34.051Z,42.60
2017-12-05T01:06:02.347Z,42.48
2017-12-05T01:08:30.642Z,42.46
2017-12-05T01:10:58.957Z,42.44
2017-12-05T01:13:27.274Z,42.40
2017-12-05T01:15:55.583Z,42.47
2017-12-05T01:18:24.015Z,42.52
2017-12-05T01:20:52.298Z,42.51
2017-12-05T01:23:20.554Z,42.58
2017-12-05T01:25:48.879Z,42.61
2017-12-05T01:28:17.337Z,42.57
2017-12-05T01:30:45.644Z,42.56
2017-12-05T01:33:13.950Z,42.60
2017-12-05T01:35:42.404Z,42.60
2017-12-05T01:38:10.911Z,42.63
2017-12-05T01:40:39.231Z,42.65
2017-12-05T01:43:07.530Z,42.60
2017-12-05T01:45:35.915Z,42.65
2017-12-05T01:48:04.423Z,42.63
2017-12-05T01:50:32.713Z,42.65
2017-12-05T01:53:01.138Z,42.57
2017-12-05T01:55:29.443Z,42.66
2017-12-05T01:57:57.719Z,42.76
2017-12-05T02:00:26.022Z,42.76
2017-12-05T02:02:54.332Z,42.78
2017-12-05T02:05:22.633Z,42.83
2017-12-05T02:07:51.017Z,42.85
2017-12-05T02:10:19.324Z,42.84
2017-12-05T02:12:47.756Z,42.82
2017-12-05T02:15:16.076Z,42.80
2017-12-05T02:17:44.761Z,42.79
2017-12-05T02:20:13.231Z,42.81
2017-12-05T02:22:41.535Z,42.87
2017-12-05T02:25:09.823Z,42.89
2017-12-05T02:27:38.234Z,42.88
2017-12-05T02:30:06.565Z,42.86
2017-12-05T02:32:34.859Z,42.92
2017-12-05T02:35:03.119Z,42.87
2017-12-05T02:37:31.531Z,42.87
2017-12-05T02:39:59.803Z,42.86
2017-12-05T02:42:28.225Z,42.89
2017-12-05T02:44:56.575Z,42.94
2017-12-05T02:47:24.899Z,42.95
2017-12-05T02:49:53.174Z,42.95
2017-12-05T02:52:21.508Z,42.90
2017-12-05T02:54:49.882Z,42.88
2017-12-05T02:57:18.208Z,42.95
2017-12-05T02:59:46.537Z,42.97
2017-12-05T03:02:15.351Z,42.99
2017-12-05T03:04:43.624Z,42.98
2017-12-05T03:07:11.933Z,42.99
2017-12-05T03:09:40.255Z,42.98
2017-12-05T03:12:08.555Z,42.97
2017-12-05T03:14:37.103Z,42.98
2017-12-05T03:17:05.416Z,43.00
2017-12-05T03:19:33.736Z,42.78
2017-12-05T03:22:02.010Z,42.60
2017-12-05T03:24:30.324Z,42.50
2017-12-05T03:26:58.607Z,42.48
2017-12-05T03:29:26.904Z,42.61
2017-12-05T03:31:55.199Z,42.42
2017-12-05T03:34:23.501Z,42.34
2017-12-05T03:36:51.840Z,42.36
2017-12-05T03:39:20.110Z,42.35
2017-12-05T03:41:48.583Z,42.40
2017-12-05T03:44:16.864Z,42.51
2017-12-05T03:46:45.324Z,42.47
2017-12-05T03:49:13.791Z,42.52
2017-12-05T03:51:42.087Z,42.48
2017-12-05T03:54:10.385Z,42.52
2017-12-05T03:56:38.680Z,42.41
2017-12-05T03:59:07.003Z,42.42
2017-12-05T04:01:35.324Z,42.23
2017-12-05T04:04:03.604Z,42.31
2017-12-05T04:06:31.878Z,42.27
2017-12-05T04:09:00.172Z,42.31
2017-12-05T04:11:28.467Z,42.35
2017-12-05T04:13:56.771Z,42.38
2017-12-05T04:16:25.082Z,42.32
2017-12-05T04:18:53.371Z,42.36
2017-12-05T04:21:21.687Z,42.44
2017-12-05T04:23:50.008Z,42.45
2017-12-05T04:26:18.362Z,42.37
2017-12-05T04:28:46.641Z,42.32
2017-12-05T04:31:14.931Z,42.29
2017-12-05T04:33:43.223Z,42.29
2017-12-05T04:36:11.545Z,42.31
2017-12-05T04:38:39.979Z,42.33
2017-12-05T04:41:08.431Z,42.37
2017-12-05T04:43:36.899Z,42.38
2017-12-05T04:46:05.224Z,42.40
2017-12-05T04:48:33.564Z,42.34
2017-12-05T04:51:01.873Z,42.33
2017-12-05T04:53:30.199Z,42.39
2017-12-05T04:55:58.498Z,42.35
2017-12-05T04:58:26.963Z,42.27
2017-12-05T05:00:55.268Z,42.30
2017-12-05T05:03:23.631Z,42.33
2017-12-05T05:05:51.938Z,42.43
2017-12-05T05:08:20.247Z,42.35
2017-12-05T05:10:48.551Z,42.36
2017-12-05T05:13:16.854Z,42.39
2017-12-05T05:15:45.307Z,42.38
2017-12-05T05:18:13.775Z,42.29
2017-12-05T05:20:42.195Z,42.32
2017-12-05T05:23:10.472Z,42.32
2017-12-05T05:25:38.787Z,42.36
2017-12-05T05:28:07.080Z,42.34
2017-12-05T05:30:35.400Z,42.34
2017-12-05T05:33:03.819Z,42.32
2017-12-05T05:35:32.123Z,42.31
2017-12-05T05:38:00.419Z,42.31
2017-12-05T05:40:28.939Z,42.26
2017-12-05T05:42:57.246Z,42.32
2017-12-05T05:45:25.543Z,42.29
2017-12-05T05:47:53.875Z,42.52
2017-12-05T05:50:22.191Z,42.57
2017-12-05T05:52:50.663Z,42.61
2017-12-05T05:55:18.954Z,42.58
2017-12-05T05:57:47.242Z,42.63
2017-12-05T06:00:15.539Z,42.74
2017-12-05T06:02:43.977Z,42.83
2017-12-05T06:05:12.279Z,42.90
2017-12-05T06:07:40.727Z,43.01
2017-12-05T06:10:09.044Z,42.95
2017-12-05T06:12:37.332Z,43.04
2017-12-05T06:15:05.779Z,43.33
2017-12-05T06:17:34.086Z,43.90
2017-12-05T06:20:02.536Z,44.29
2017-12-05T06:22:30.882Z,44.37
2017-12-05T06:24:59.151Z,44.58
2017-12-05T06:27:27.504Z,44.79
2017-12-05T06:29:55.820Z,44.75
2017-12-05T06:32:24.131Z,44.78
2017-12-05T06:34:52.587Z,44.80
2017-12-05T06:37:20.912Z,44.98
2017-12-05T06:39:49.189Z,44.97
2017-12-05T06:42:17.731Z,45.06
2017-12-05T06:44:46.041Z,45.63
2017-12-05T06:47:14.345Z,45.50
2017-12-05T06:49:42.604Z,45.42
2017-12-05T06:52:10.969Z,45.39
2017-12-05T06:54:39.235Z,45.29
2017-12-05T06:57:07.519Z,45.18
2017-12-05T06:59:36.604Z,45.12
2017-12-05T07:02:04.996Z,45.00
2017-12-05T07:04:33.319Z,44.95
2017-12-05T07:07:01.631Z,44.98
2017-12-05T07:09:29.911Z,44.90
2017-12-05T07:11:59.254Z,44.96
2017-12-05T07:14:29.157Z,44.80
2017-12-05T07:16:57.622Z,44.74
2017-12-05T07:19:25.899Z,44.59
2017-12-05T07:21:54.233Z,44.61
2017-12-05T07:24:22.583Z,44.62
2017-12-05T07:26:50.925Z,44.62
2017-12-05T07:29:19.628Z,44.72
2017-12-05T07:31:47.939Z,44.95
2017-12-05T07:34:16.430Z,45.11
2017-12-05T07:36:44.779Z,45.24
2017-12-05T07:39:13.243Z,45.20
2017-12-05T07:41:41.595Z,45.17
2017-12-05T07:44:09.897Z,45.21
2017-12-05T07:46:38.226Z,45.16
2017-12-05T07:49:06.623Z,45.08
2017-12-05T07:51:35.080Z,45.00
2017-12-05T07:54:03.379Z,44.89
2017-12-05T07:56:31.716Z,44.92
2017-12-05T07:59:00.019Z,44.84
2017-12-05T08:01:28.375Z,44.72
2017-12-05T08:03:56.660Z,44.61
2017-12-05T08:06:24.971Z,44.60
2017-12-05T08:08:53.415Z,44.56
2017-12-05T08:11:21.977Z,44.56
2017-12-05T08:13:50.236Z,44.49
2017-12-05T08:16:18.548Z,44.51
2017-12-05T08:18:47.065Z,44.54
2017-12-05T08:21:15.659Z,44.47
2017-12-05T08:23:44.163Z,44.38
2017-12-05T08:26:12.469Z,44.45
2017-12-05T08:28:40.875Z,44.42
2017-12-05T08:31:09.183Z,44.43
2017-12-05T08:33:37.616Z,44.36
2017-12-05T08:36:06.104Z,44.36
2017-12-05T08:38:36.102Z,44.29
2017-12-05T08:41:05.948Z,44.33
2017-12-05T08:43:34.227Z,44.28
2017-12-05T08:46:02.525Z,44.38
2017-12-05T08:48:30.804Z,44.29
2017-12-05T08:50:59.159Z,44.33
2017-12-05T08:53:27.487Z,44.36
2017-12-05T08:55:55.784Z,44.40
2017-12-05T08:58:24.425Z,44.33
2017-12-05T09:00:53.234Z,44.39
2017-12-05T09:03:21.590Z,44.50
2017-12-05T09:05:50.263Z,44.39
2017-12-05T09:08:18.619Z,44.55
2017-12-05T09:10:46.940Z,44.64
2017-12-05T09:13:15.228Z,44.90
2017-12-05T09:15:43.524Z,45.20
2017-12-05T09:18:11.796Z,44.86
2017-12-05T09:20:40.215Z,44.62
2017-12-05T09:23:08.652Z,44.29
2017-12-05T09:25:37.310Z,44.34
2017-12-05T09:28:05.618Z,44.37
2017-12-05T09:30:33.932Z,44.40
2017-12-05T09:33:02.225Z,44.30
2017-12-05T09:35:30.692Z,44.07
2017-12-05T09:37:59.559Z,44.04
2017-12-05T09:40:27.851Z,44.00
2017-12-05T09:42:56.157Z,43.94
2017-12-05T09:45:24.619Z,43.84
2017-12-05T09:47:52.939Z,43.72
2017-12-05T09:50:21.226Z,43.73
2017-12-05T09:52:49.623Z,43.80
2017-12-05T09:55:17.916Z,43.69
2017-12-05T09:57:46.399Z,43.82
2017-12-05T10:00:14.717Z,43.86
2017-12-05T10:02:43.022Z,43.88
2017-12-05T10:05:11.347Z,43.71
2017-12-05T10:07:39.618Z,43.74
2017-12-05T10:10:07.907Z,43.71
2017-12-05T10:12:36.215Z,43.79
2017-12-05T10:15:04.734Z,43.74
2017-12-05T10:17:32.992Z,43.72
2017-12-05T10:20:01.283Z,43.74
2017-12-05T10:22:29.794Z,43.67
2017-12-05T10:24:58.099Z,43.67
2017-12-05T10:27:26.431Z,43.75
2017-12-05T10:29:54.698Z,43.72
2017-12-05T10:32:23.108Z,43.78
2017-12-05T10:34:51.412Z,43.81
2017-12-05T10:37:19.747Z,43.90
2017-12-05T10:39:48.011Z,43.81
2017-12-05T10:42:16.339Z,43.90
2017-12-05T10:44:44.632Z,43.91
2017-12-05T10:47:12.956Z,43.81
2017-12-05T10:49:41.211Z,43.95
2017-12-05T10:52:09.699Z,44.03
2017-12-05T10:54:38.231Z,44.01
2017-12-05T10:57:06.899Z,43.97
2017-12-05T10:59:35.184Z,44.02
2017-12-05T11:02:03.512Z,44.05
2017-12-05T11:04:31.942Z,44.04
2017-12-05T11:07:00.276Z,44.02
2017-12-05T11:09:28.632Z,43.99
2017-12-05T11:11:57.139Z,43.90
2017-12-05T11:14:25.426Z,43.90
2017-12-05T11:16:53.765Z,43.92
2017-12-05T11:19:22.155Z,43.90
2017-12-05T11:21:51.323Z,43.92
2017-12-05T11:24:19.603Z,44.00
2017-12-05T11:26:47.935Z,44.04
2017-12-05T11:29:16.272Z,44.08
2017-12-05T11:31:44.875Z,44.06
2017-12-05T11:34:13.171Z,44.10
2017-12-05T11:36:41.475Z,44.10
2017-12-05T11:39:09.919Z,44.07
2017-12-05T11:41:38.243Z,44.11
2017-12-05T11:44:06.535Z,44.07
2017-12-05T11:46:35.682Z,44.05
2017-12-05T11:49:03.995Z,43.89
2017-12-05T11:51:32.347Z,44.01
2017-12-05T11:54:00.611Z,44.02
2017-12-05T11:56:28.927Z,44.03
2017-12-05T11:58:57.203Z,44.02
2017-12-05T12:01:25.523Z,44.05
2017-12-05T12:03:53.991Z,44.05
2017-12-05T12:06:22.514Z,44.10
2017-12-05T12:08:50.936Z,44.11
2017-12-05T12:11:19.266Z,44.14
2017-12-05T12:13:47.680Z,44.13
2017-12-05T12:16:16.043Z,44.12
2017-12-05T12:18:44.330Z,44.10
2017-12-05T12:21:12.742Z,44.13
2017-12-05T12:23:41.015Z,44.12
2017-12-05T12:26:09.339Z,44.11
2017-12-05T12:28:37.617Z,44.10
2017-12-05T12:31:05.960Z,44.13
2017-12-05T12:33:34.247Z,44.14
2017-12-05T12:36:02.818Z,44.16
2017-12-05T12:38:31.091Z,44.15
2017-12-05T12:40:59.601Z,44.14
2017-12-05T12:43:28.043Z,44.16
2017-12-05T12:45:56.359Z,44.15
2017-12-05T12:48:24.787Z,44.14
2017-12-05T12:50:53.187Z,44.12
2017-12-05T12:53:21.466Z,44.14
2017-12-05T12:55:49.755Z,44.11
2017-12-05T12:58:18.016Z,44.12
2017-12-05T13:00:46.309Z,44.12
2017-12-05T13:03:14.607Z,44.12
2017-12-05T13:05:42.927Z,44.14
2017-12-05T13:08:11.332Z,44.11
2017-12-05T13:10:39.632Z,44.14
2017-12-05T13:13:07.911Z,44.14
2017-12-05T13:15:36.191Z,44.12
2017-12-05T13:18:04.473Z,44.11
2017-12-05T13:20:32.859Z,44.12
2017-12-05T13:23:01.144Z,44.12
2017-12-05T13:25:29.439Z,44.13
2017-12-05T13:27:57.715Z,44.14
2017-12-05T13:30:26.119Z,44.13
2017-12-05T13:32:54.446Z,44.14
2017-12-05T13:35:22.758Z,44.14
2017-12-05T13:37:51.107Z,44.14
2017-12-05T13:40:19.433Z,44.16
2017-12-05T13:42:47.740Z,44.13
2017-12-05T13:45:16.238Z,44.14
2017-12-05T13:47:44.491Z,44.15
2017-12-05T13:50:12.812Z,44.15
2017-12-05T13:52:41.124Z,44.16
2017-12-05T13:55:09.438Z,44.16
2017-12-05T13:57:37.728Z,44.18
2017-12-05T14:00:06.040Z,44.17
2017-12-05T14:02:34.346Z,44.15
2017-12-05T14:05:02.653Z,44.15
2017-12-05T14:07:31.027Z,44.14
2017-12-05T14:09:59.271Z,44.14
2017-12-05T14:12:27.854Z,44.15
2017-12-05T14:14:56.156Z,44.16
2017-12-05T14:17:24.599Z,44.15
2017-12-05T14:19:52.879Z,44.16
2017-12-05T14:22:21.359Z,44.18
2017-12-05T14:24:49.856Z,44.18
2017-12-05T14:27:18.242Z,44.19
2017-12-05T14:29:46.947Z,44.19
2017-12-05T14:32:15.276Z,44.19
2017-12-05T14:34:43.568Z,44.18
2017-12-05T14:37:11.907Z,44.19
2017-12-05T14:39:40.286Z,44.19
2017-12-05T14:42:08.829Z,44.17
2017-12-05T14:44:38.399Z,44.15
2017-12-05T14:47:07.209Z,44.13
2017-12-05T14:49:35.488Z,44.11
2017-12-05T14:52:03.819Z,44.13
2017-12-05T14:54:32.383Z,44.12
2017-12-05T14:57:00.675Z,44.13
2017-12-05T14:59:28.970Z,44.12
2017-12-05T15:01:57.272Z,44.10
2017-12-05T15:04:25.695Z,44.11
2017-12-05T15:06:54.523Z,44.11
2017-12-05T15:09:23.062Z,44.11
2017-12-05T15:11:51.395Z,44.11
2017-12-05T15:14:20.890Z,44.13
2017-12-05T15:16:50.803Z,44.14
2017-12-05T15:19:21.155Z,44.12
2017-12-05T15:21:49.634Z,44.13
2017-12-05T15:24:18.047Z,44.12
2017-12-05T15:26:46.339Z,44.14
2017-12-05T15:29:14.790Z,44.13
2017-12-05T15:31:43.111Z,44.12
2017-12-05T15:34:11.439Z,44.12
2017-12-05T15:36:39.744Z,44.09
2017-12-05T15:39:08.035Z,44.10
2017-12-05T15:41:36.532Z,44.09
2017-12-05T15:44:04.836Z,44.10
2017-12-05T15:46:33.141Z,44.09
2017-12-05T15:49:01.525Z,44.12
2017-12-05T15:51:29.815Z,44.14
2017-12-05T15:53:58.191Z,44.10
2017-12-05T15:56:26.487Z,44.11
2017-12-05T15:58:54.819Z,44.12
2017-12-05T16:01:23.165Z,44.11
2017-12-05T16:03:51.734Z,44.09
2017-12-05T16:06:20.032Z,44.10
2017-12-05T16:08:48.315Z,44.10
2017-12-05T16:11:16.759Z,44.13
2017-12-05T16:13:45.028Z,44.21
2017-12-05T16:16:13.371Z,44.31
2017-12-05T16:18:41.661Z,44.34
2017-12-05T16:21:10.029Z,44.38
2017-12-05T16:23:38.295Z,44.40
2017-12-05T16:26:06.582Z,44.46
2017-12-05T16:28:35.063Z,44.56
2017-12-05T16:31:03.354Z,44.64
2017-12-05T16:33:31.615Z,44.58
2017-12-05T16:35:59.907Z,44.63
2017-12-05T16:38:28.272Z,44.73
2017-12-05T16:40:56.619Z,44.86
2017-12-05T16:43:24.920Z,44.78
2017-12-05T16:45:53.245Z,44.90
2017-12-05T16:48:21.515Z,44.97
2017-12-05T16:50:49.995Z,44.95
2017-12-05T16:53:18.276Z,45.13
2017-12-05T16:55:46.759Z,45.22
2017-12-05T16:58:15.211Z,45.07
2017-12-05T17:00:43.576Z,45.33
2017-12-05T17:03:12.017Z,45.26
2017-12-05T17:05:40.610Z,45.27
2017-12-05T17:08:08.924Z,45.47
2017-12-05T17:10:37.252Z,45.52
2017-12-05T17:13:05.532Z,45.77
2017-12-05T17:15:33.834Z,45.66
2017-12-05T17:18:02.138Z,45.73
2017-12-05T17:20:30.435Z,46.42
2017-12-05T17:22:58.743Z,47.14
2017-12-05T17:25:27.135Z,48.55
2017-12-05T17:27:55.498Z,48.67
2017-12-05T17:30:23.840Z,48.08
2017-12-05T17:32:52.115Z,47.53
2017-12-05T17:35:21.279Z,47.06
2017-12-05T17:37:49.636Z,46.75
2017-12-05T17:40:18.083Z,46.60
2017-12-05T17:42:46.515Z,46.40
2017-12-05T17:45:14.830Z,46.25
2017-12-05T17:47:43.296Z,46.20
2017-12-05T17:50:11.609Z,46.08
2017-12-05T17:52:40.012Z,46.03
2017-12-05T17:55:08.817Z,45.95
2017-12-05T17:57:37.360Z,45.83
2017-12-05T18:00:05.806Z,45.82
2017-12-05T18:02:34.179Z,45.78
2017-12-05T18:05:02.440Z,45.69
2017-12-05T18:07:30.959Z,45.68
2017-12-05T18:09:59.234Z,45.56
2017-12-05T18:12:27.616Z,45.55
2017-12-05T18:14:55.886Z,45.50
2017-12-05T18:17:24.476Z,45.50
2017-12-05T18:19:52.738Z,45.49
2017-12-05T18:22:21.099Z,45.48
2017-12-05T18:24:49.415Z,45.46
2017-12-05T18:27:17.844Z,45.50
2017-12-05T18:29:46.159Z,45.40
2017-12-05T18:32:14.588Z,45.39
2017-12-05T18:34:42.880Z,45.34
2017-12-05T18:37:11.343Z,45.40
2017-12-05T18:39:39.635Z,45.33
2017-12-05T18:42:07.998Z,45.31
2017-12-05T18:44:36.299Z,45.32
2017-12-05T18:47:04.630Z,45.30
2017-12-05T18:49:32.936Z,45.24
2017-12-05T18:52:01.320Z,45.24
2017-12-05T18:54:29.592Z,45.22
2017-12-05T18:56:57.944Z,45.26
2017-12-05T18:59:26.219Z,45.24
2017-12-05T19:01:54.516Z,45.27
2017-12-05T19:04:22.899Z,45.24
2017-12-05T19:06:51.239Z,45.20
2017-12-05T19:09:19.667Z,45.19
2017-12-05T19:11:48.083Z,45.19
2017-12-05T19:14:16.391Z,45.19
2017-12-05T19:16:46.599Z,45.27
2017-12-05T19:19:15.821Z,45.20
2017-12-05T19:21:45.708Z,45.17
2017-12-05T19:24:14.183Z,45.16
2017-12-05T19:26:42.474Z,45.27
2017-12-05T19:29:10.987Z,45.17
2017-12-05T19:31:39.427Z,45.21
2017-12-05T19:34:07.988Z,45.25
2017-12-05T19:36:36.492Z,45.26
2017-12-05T19:39:05.032Z,45.19
2017-12-05T19:41:33.559Z,45.24
2017-12-05T19:44:01.827Z,45.26
2017-12-05T19:46:30.163Z,45.25
2017-12-05T19:48:58.466Z,45.20
2017-12-05T19:51:26.935Z,45.18
2017-12-05T19:53:55.206Z,45.21
2017-12-05T19:56:23.615Z,45.15
2017-12-05T19:58:52.063Z,45.15
2017-12-05T20:01:20.702Z,45.18
2017-12-05T20:03:48.990Z,45.14
2017-12-05T20:06:17.798Z,45.09
2017-12-05T20:08:46.551Z,45.13
2017-12-05T20:11:15.571Z,45.12
2017-12-05T20:13:44.701Z,45.13
2017-12-05T20:16:13.087Z,45.09
2017-12-05T20:18:41.499Z,45.12
2017-12-05T20:21:09.815Z,45.14
2017-12-05T20:23:38.280Z,45.08
2017-12-05T20:26:06.951Z,45.08
2017-12-05T20:28:35.607Z,45.10
2017-12-05T20:31:04.147Z,45.07
2017-12-05T20:33:32.760Z,45.05
2017-12-05T20:36:01.523Z,45.05
2017-12-05T20:38:29.828Z,45.01
2017-12-05T20:40:58.307Z,45.01
2017-12-05T20:43:26.657Z,45.02
2017-12-05T20:45:54.993Z,45.05
2017-12-05T20:48:23.312Z,44.99
2017-12-05T20:50:52.735Z,44.95
2017-12-05T20:53:21.046Z,44.90
2017-12-05T20:55:49.347Z,44.90
2017-12-05T20:58:17.764Z,44.88
2017-12-05T21:00:46.388Z,44.87
2017-12-05T21:03:14.963Z,44.85
2017-12-05T21:05:43.360Z,44.82
2017-12-05T21:08:11.729Z,44.80
2017-12-05T21:10:40.123Z,44.83
2017-12-05T21:13:08.469Z,44.80
2017-12-05T21:15:36.835Z,44.80
2017-12-05T21:18:05.435Z,44.80
2017-12-05T21:20:34.186Z,44.81
2017-12-05T21:23:02.577Z,44.82
2017-12-05T21:25:30.941Z,44.82
2017-12-05T21:27:59.730Z,45.04
2017-12-05T21:30:28.461Z,45.05
2017-12-05T21:32:56.795Z,45.14
2017-12-05T21:35:25.091Z,45.16
2017-12-05T21:37:55.805Z,45.19
2017-12-05T21:40:24.327Z,45.16
2017-12-05T21:42:52.636Z,45.16
2017-12-05T21:45:21.287Z,45.11
2017-12-05T21:47:49.698Z,45.13
2017-12-05T21:50:18.223Z,45.02
2017-12-05T21:52:46.637Z,44.77
2017-12-05T21:55:17.017Z,44.71
2017-12-05T21:57:49.582Z,44.62
2017-12-05T22:00:19.351Z,44.59
2017-12-05T22:02:47.623Z,44.38
2017-12-05T22:05:15.935Z,44.28
2017-12-05T22:07:44.219Z,44.24
2017-12-05T22:10:12.558Z,44.22
2017-12-05T22:12:40.821Z,44.19
2017-12-05T22:15:09.276Z,44.26
2017-12-05T22:17:37.554Z,44.17
2017-12-05T22:20:05.874Z,44.01
2017-12-05T22:22:34.259Z,43.96
2017-12-05T22:25:03.239Z,43.90
2017-12-05T22:27:32.850Z,43.86
2017-12-05T22:30:01.299Z,43.82
2017-12-05T22:32:32.605Z,43.76
2017-12-05T22:35:00.899Z,43.75
2017-12-05T22:37:29.291Z,43.83
2017-12-05T22:39:57.735Z,43.81
2017-12-05T22:42:26.170Z,43.78
2017-12-05T22:44:54.482Z,43.78
2017-12-05T22:47:22.807Z,43.87
2017-12-05T22:49:51.358Z,43.72
2017-12-05T22:52:19.654Z,43.75
2017-12-05T22:54:48.123Z,43.71
2017-12-05T22:57:16.435Z,43.63
2017-12-05T22:59:44.704Z,43.72
2017-12-05T23:02:13.195Z,43.70
2017-12-05T23:04:41.563Z,43.64
2017-12-05T23:07:10.671Z,43.91
2017-12-05T23:09:40.815Z,43.87
2017-12-05T23:12:11.923Z,43.88
2017-12-05T23:14:41.536Z,43.83
2017-12-05T23:17:12.171Z,43.79
2017-12-05T23:19:40.651Z,43.81
2017-12-05T23:22:09.115Z,43.77
2017-12-05T23:24:37.399Z,43.81
2017-12-05T23:27:05.683Z,43.83
2017-12-05T23:29:34.179Z,43.85
2017-12-05T23:32:02.632Z,43.95
2017-12-05T23:34:31.062Z,43.91
2017-12-05T23:36:59.500Z,44.00
2017-12-05T23:39:27.751Z,43.97
2017-12-05T23:41:56.059Z,43.92
2017-12-05T23:44:24.323Z,43.96
2017-12-05T23:46:52.682Z,44.00
2017-12-05T23:49:21.154Z,44.19
2017-12-05T23:51:49.451Z,44.07
2017-12-05T23:54:17.703Z,44.10
2017-12-05T23:56:46.023Z,44.06
2017-12-05T23:59:14.449Z,44.10
